sensor_id;sensor_type;location;lat;lon;timestamp;P1;durP1;ratioP1;P2;durP2;ratioP2
73100;SDS011;61288;53.446;-2.266;2023-12-22T00:01:39;21.67;;;3.78;;
73100;SDS011;61288;53.446;-2.266;2023-12-22T00:04:04;21.40;;;3.47;;
73100;SDS011;61288;53.446;-2.266;2023-12-22T00:06:32;22.35;;;3.75;;
73100;SDS011;61288;53.446;-2.266;2023-12-22T00:08:58;20.80;;;3.35;;
73100;SDS011;61288;53.446;-2.266;2023-12-22T00:11:24;23.70;;;3.05;;
73100;SDS011;61288;53.446;-2.266;2023-12-22T00:13:50;26.70;;;3.28;;
73100;SDS011;61288;53.446;-2.266;2023-12-22T00:16:16;17.75;;;3.00;;
73100;SDS011;61288;53.446;-2.266;2023-12-22T00:18:41;20.60;;;3.10;;
73100;SDS011;61288;53.446;-2.266;2023-12-22T00:21:10;23.20;;;3.22;;
73100;SDS011;61288;53.446;-2.266;2023-12-22T00:23:36;26.83;;;3.95;;
73100;SDS011;61288;53.446;-2.266;2023-12-22T00:26:03;26.60;;;3.90;;
73100;SDS011;61288;53.446;-2.266;2023-12-22T00:28:29;17.80;;;2.50;;
73100;SDS011;61288;53.446;-2.266;2023-12-22T00:30:56;19.02;;;3.45;;
73100;SDS011;61288;53.446;-2.266;2023-12-22T00:33:24;21.83;;;3.45;;
73100;SDS011;61288;53.446;-2.266;2023-12-22T00:35:51;18.45;;;3.38;;
73100;SDS011;61288;53.446;-2.266;2023-12-22T00:38:17;22.65;;;2.58;;
73100;SDS011;61288;53.446;-2.266;2023-12-22T00:40:43;22.02;;;3.00;;
73100;SDS011;61288;53.446;-2.266;2023-12-22T00:43:09;15.93;;;2.83;;
73100;SDS011;61288;53.446;-2.266;2023-12-22T00:45:34;18.98;;;3.75;;
73100;SDS011;61288;53.446;-2.266;2023-12-22T00:48:00;20.20;;;2.97;;
73100;SDS011;61288;53.446;-2.266;2023-12-22T00:50:25;18.63;;;2.80;;
73100;SDS011;61288;53.446;-2.266;2023-12-22T00:52:51;19.13;;;3.15;;
73100;SDS011;61288;53.446;-2.266;2023-12-22T00:55:17;18.15;;;2.58;;
73100;SDS011;61288;53.446;-2.266;2023-12-22T00:57:43;20.20;;;3.08;;
73100;SDS011;61288;53.446;-2.266;2023-12-22T01:00:08;23.25;;;3.38;;
73100;SDS011;61288;53.446;-2.266;2023-12-22T01:02:37;24.73;;;2.83;;
73100;SDS011;61288;53.446;-2.266;2023-12-22T01:05:03;20.33;;;2.78;;
73100;SDS011;61288;53.446;-2.266;2023-12-22T01:07:29;14.60;;;2.20;;
73100;SDS011;61288;53.446;-2.266;2023-12-22T01:09:54;17.17;;;2.33;;
73100;SDS011;61288;53.446;-2.266;2023-12-22T01:12:20;17.02;;;2.50;;
73100;SDS011;61288;53.446;-2.266;2023-12-22T01:14:45;12.90;;;1.80;;
73100;SDS011;61288;53.446;-2.266;2023-12-22T01:17:11;10.98;;;1.80;;
73100;SDS011;61288;53.446;-2.266;2023-12-22T01:19:36;14.02;;;2.42;;
73100;SDS011;61288;53.446;-2.266;2023-12-22T01:22:04;14.25;;;2.25;;
73100;SDS011;61288;53.446;-2.266;2023-12-22T01:24:29;17.55;;;2.63;;
73100;SDS011;61288;53.446;-2.266;2023-12-22T01:26:54;11.27;;;1.80;;
73100;SDS011;61288;53.446;-2.266;2023-12-22T01:29:20;24.10;;;2.10;;
73100;SDS011;61288;53.446;-2.266;2023-12-22T01:31:45;18.55;;;2.35;;
73100;SDS011;61288;53.446;-2.266;2023-12-22T01:34:11;17.00;;;2.13;;
73100;SDS011;61288;53.446;-2.266;2023-12-22T01:36:36;12.88;;;2.15;;
73100;SDS011;61288;53.446;-2.266;2023-12-22T01:39:02;10.68;;;2.22;;
73100;SDS011;61288;53.446;-2.266;2023-12-22T01:41:28;11.48;;;2.08;;
73100;SDS011;61288;53.446;-2.266;2023-12-22T01:43:53;11.32;;;2.00;;
73100;SDS011;61288;53.446;-2.266;2023-12-22T01:46:19;9.70;;;1.73;;
73100;SDS011;61288;53.446;-2.266;2023-12-22T01:48:45;11.00;;;1.60;;
73100;SDS011;61288;53.446;-2.266;2023-12-22T01:51:11;13.52;;;2.72;;
73100;SDS011;61288;53.446;-2.266;2023-12-22T01:53:37;9.65;;;1.83;;
73100;SDS011;61288;53.446;-2.266;2023-12-22T01:56:03;8.95;;;1.40;;
73100;SDS011;61288;53.446;-2.266;2023-12-22T01:58:31;13.40;;;1.77;;
73100;SDS011;61288;53.446;-2.266;2023-12-22T02:01:00;6.82;;;1.00;;
73100;SDS011;61288;53.446;-2.266;2023-12-22T02:03:26;6.32;;;1.38;;
73100;SDS011;61288;53.446;-2.266;2023-12-22T02:05:52;7.55;;;1.30;;
73100;SDS011;61288;53.446;-2.266;2023-12-22T02:08:18;6.65;;;1.15;;
73100;SDS011;61288;53.446;-2.266;2023-12-22T02:10:44;4.88;;;0.93;;
73100;SDS011;61288;53.446;-2.266;2023-12-22T02:13:10;4.55;;;1.67;;
73100;SDS011;61288;53.446;-2.266;2023-12-22T02:15:36;8.63;;;0.95;;
73100;SDS011;61288;53.446;-2.266;2023-12-22T02:18:09;5.32;;;0.90;;
73100;SDS011;61288;53.446;-2.266;2023-12-22T02:20:39;4.63;;;1.10;;
73100;SDS011;61288;53.446;-2.266;2023-12-22T02:23:06;8.15;;;1.33;;
73100;SDS011;61288;53.446;-2.266;2023-12-22T02:25:31;3.40;;;0.70;;
73100;SDS011;61288;53.446;-2.266;2023-12-22T02:30:25;3.78;;;0.70;;
73100;SDS011;61288;53.446;-2.266;2023-12-22T02:32:58;1.48;;;0.60;;
73100;SDS011;61288;53.446;-2.266;2023-12-22T02:35:26;2.80;;;0.73;;
73100;SDS011;61288;53.446;-2.266;2023-12-22T02:37:56;0.70;;;0.57;;
73100;SDS011;61288;53.446;-2.266;2023-12-22T02:40:24;1.60;;;0.77;;
73100;SDS011;61288;53.446;-2.266;2023-12-22T02:42:51;3.75;;;0.90;;
73100;SDS011;61288;53.446;-2.266;2023-12-22T02:45:19;7.32;;;1.10;;
73100;SDS011;61288;53.446;-2.266;2023-12-22T02:47:45;6.65;;;1.10;;
73100;SDS011;61288;53.446;-2.266;2023-12-22T02:50:18;7.72;;;1.40;;
73100;SDS011;61288;53.446;-2.266;2023-12-22T02:52:44;4.90;;;1.25;;
73100;SDS011;61288;53.446;-2.266;2023-12-22T02:55:10;7.38;;;1.63;;
73100;SDS011;61288;53.446;-2.266;2023-12-22T02:57:36;7.70;;;1.20;;
73100;SDS011;61288;53.446;-2.266;2023-12-22T03:00:02;5.72;;;1.40;;
73100;SDS011;61288;53.446;-2.266;2023-12-22T03:02:28;7.60;;;1.45;;
73100;SDS011;61288;53.446;-2.266;2023-12-22T03:04:54;8.52;;;1.50;;
73100;SDS011;61288;53.446;-2.266;2023-12-22T03:07:20;10.00;;;1.30;;
73100;SDS011;61288;53.446;-2.266;2023-12-22T03:09:46;5.20;;;1.40;;
73100;SDS011;61288;53.446;-2.266;2023-12-22T03:12:11;6.80;;;1.40;;
73100;SDS011;61288;53.446;-2.266;2023-12-22T03:14:37;7.05;;;1.63;;
73100;SDS011;61288;53.446;-2.266;2023-12-22T03:17:03;9.38;;;1.70;;
73100;SDS011;61288;53.446;-2.266;2023-12-22T03:19:32;11.23;;;1.65;;
73100;SDS011;61288;53.446;-2.266;2023-12-22T03:21:58;10.23;;;1.42;;
73100;SDS011;61288;53.446;-2.266;2023-12-22T03:24:25;6.28;;;1.30;;
73100;SDS011;61288;53.446;-2.266;2023-12-22T03:26:51;10.45;;;1.50;;
73100;SDS011;61288;53.446;-2.266;2023-12-22T03:29:17;10.60;;;1.50;;
73100;SDS011;61288;53.446;-2.266;2023-12-22T03:31:43;9.02;;;1.38;;
73100;SDS011;61288;53.446;-2.266;2023-12-22T03:34:10;9.85;;;1.95;;
73100;SDS011;61288;53.446;-2.266;2023-12-22T03:36:35;10.60;;;1.73;;
73100;SDS011;61288;53.446;-2.266;2023-12-22T03:39:01;13.27;;;1.85;;
73100;SDS011;61288;53.446;-2.266;2023-12-22T03:41:28;10.38;;;1.90;;
73100;SDS011;61288;53.446;-2.266;2023-12-22T03:43:54;12.63;;;1.75;;
73100;SDS011;61288;53.446;-2.266;2023-12-22T03:46:24;9.63;;;1.90;;
73100;SDS011;61288;53.446;-2.266;2023-12-22T03:48:50;16.60;;;1.80;;
73100;SDS011;61288;53.446;-2.266;2023-12-22T03:51:16;17.92;;;1.92;;
73100;SDS011;61288;53.446;-2.266;2023-12-22T03:53:42;9.77;;;1.50;;
73100;SDS011;61288;53.446;-2.266;2023-12-22T03:56:08;17.73;;;2.25;;
73100;SDS011;61288;53.446;-2.266;2023-12-22T03:58:35;16.65;;;2.28;;
73100;SDS011;61288;53.446;-2.266;2023-12-22T04:01:01;18.45;;;2.10;;
73100;SDS011;61288;53.446;-2.266;2023-12-22T04:03:28;14.52;;;2.22;;
73100;SDS011;61288;53.446;-2.266;2023-12-22T04:05:53;11.75;;;1.98;;
73100;SDS011;61288;53.446;-2.266;2023-12-22T04:08:19;16.02;;;2.17;;
73100;SDS011;61288;53.446;-2.266;2023-12-22T04:10:45;14.63;;;1.73;;
73100;SDS011;61288;53.446;-2.266;2023-12-22T04:13:12;11.43;;;1.85;;
73100;SDS011;61288;53.446;-2.266;2023-12-22T04:15:37;16.10;;;1.75;;
73100;SDS011;61288;53.446;-2.266;2023-12-22T04:18:03;14.85;;;1.63;;
73100;SDS011;61288;53.446;-2.266;2023-12-22T04:20:28;15.65;;;1.77;;
73100;SDS011;61288;53.446;-2.266;2023-12-22T04:22:54;14.00;;;1.70;;
73100;SDS011;61288;53.446;-2.266;2023-12-22T04:25:19;12.65;;;1.85;;
73100;SDS011;61288;53.446;-2.266;2023-12-22T04:27:47;9.70;;;1.70;;
73100;SDS011;61288;53.446;-2.266;2023-12-22T04:30:12;12.63;;;1.52;;
73100;SDS011;61288;53.446;-2.266;2023-12-22T04:32:38;6.90;;;1.67;;
73100;SDS011;61288;53.446;-2.266;2023-12-22T04:35:04;15.65;;;2.35;;
73100;SDS011;61288;53.446;-2.266;2023-12-22T04:37:29;8.52;;;1.50;;
73100;SDS011;61288;53.446;-2.266;2023-12-22T04:39:55;9.82;;;1.60;;
73100;SDS011;61288;53.446;-2.266;2023-12-22T04:42:20;14.20;;;1.92;;
73100;SDS011;61288;53.446;-2.266;2023-12-22T04:44:46;12.75;;;1.55;;
73100;SDS011;61288;53.446;-2.266;2023-12-22T04:47:11;11.98;;;2.58;;
73100;SDS011;61288;53.446;-2.266;2023-12-22T04:49:37;17.42;;;2.00;;
73100;SDS011;61288;53.446;-2.266;2023-12-22T04:52:03;16.40;;;2.15;;
73100;SDS011;61288;53.446;-2.266;2023-12-22T04:54:28;15.57;;;2.17;;
73100;SDS011;61288;53.446;-2.266;2023-12-22T04:56:54;16.33;;;1.92;;
73100;SDS011;61288;53.446;-2.266;2023-12-22T04:59:19;17.58;;;2.38;;
73100;SDS011;61288;53.446;-2.266;2023-12-22T05:01:45;13.90;;;1.88;;
73100;SDS011;61288;53.446;-2.266;2023-12-22T05:04:10;13.35;;;2.03;;
73100;SDS011;61288;53.446;-2.266;2023-12-22T05:06:36;11.73;;;1.92;;
73100;SDS011;61288;53.446;-2.266;2023-12-22T05:09:02;12.45;;;2.03;;
73100;SDS011;61288;53.446;-2.266;2023-12-22T05:11:28;11.93;;;1.73;;
73100;SDS011;61288;53.446;-2.266;2023-12-22T05:13:54;15.60;;;1.88;;
73100;SDS011;61288;53.446;-2.266;2023-12-22T05:16:19;11.07;;;1.63;;
73100;SDS011;61288;53.446;-2.266;2023-12-22T05:18:45;17.83;;;2.00;;
73100;SDS011;61288;53.446;-2.266;2023-12-22T05:21:13;13.38;;;1.90;;
73100;SDS011;61288;53.446;-2.266;2023-12-22T05:23:40;19.13;;;2.38;;
73100;SDS011;61288;53.446;-2.266;2023-12-22T05:26:06;16.95;;;1.85;;
73100;SDS011;61288;53.446;-2.266;2023-12-22T05:28:32;12.20;;;2.22;;
73100;SDS011;61288;53.446;-2.266;2023-12-22T05:30:57;15.98;;;2.08;;
73100;SDS011;61288;53.446;-2.266;2023-12-22T05:33:23;16.10;;;1.83;;
73100;SDS011;61288;53.446;-2.266;2023-12-22T05:35:48;15.23;;;2.00;;
73100;SDS011;61288;53.446;-2.266;2023-12-22T05:38:14;14.75;;;1.98;;
73100;SDS011;61288;53.446;-2.266;2023-12-22T05:40:39;16.13;;;2.10;;
73100;SDS011;61288;53.446;-2.266;2023-12-22T05:43:06;12.85;;;1.77;;
73100;SDS011;61288;53.446;-2.266;2023-12-22T05:45:31;18.42;;;2.00;;
73100;SDS011;61288;53.446;-2.266;2023-12-22T05:47:56;12.48;;;1.60;;
73100;SDS011;61288;53.446;-2.266;2023-12-22T05:50:22;11.82;;;2.17;;
73100;SDS011;61288;53.446;-2.266;2023-12-22T05:52:48;12.60;;;2.13;;
73100;SDS011;61288;53.446;-2.266;2023-12-22T05:55:14;14.35;;;1.92;;
73100;SDS011;61288;53.446;-2.266;2023-12-22T05:57:39;13.15;;;1.92;;
73100;SDS011;61288;53.446;-2.266;2023-12-22T06:00:05;11.95;;;1.95;;
73100;SDS011;61288;53.446;-2.266;2023-12-22T06:02:35;18.33;;;2.58;;
73100;SDS011;61288;53.446;-2.266;2023-12-22T06:05:00;11.82;;;1.80;;
73100;SDS011;61288;53.446;-2.266;2023-12-22T06:07:26;11.55;;;1.52;;
73100;SDS011;61288;53.446;-2.266;2023-12-22T06:09:52;15.05;;;1.88;;
73100;SDS011;61288;53.446;-2.266;2023-12-22T06:12:17;12.70;;;1.50;;
73100;SDS011;61288;53.446;-2.266;2023-12-22T06:14:43;12.57;;;1.77;;
73100;SDS011;61288;53.446;-2.266;2023-12-22T06:17:08;10.48;;;1.75;;
73100;SDS011;61288;53.446;-2.266;2023-12-22T06:19:37;10.52;;;1.52;;
73100;SDS011;61288;53.446;-2.266;2023-12-22T06:22:03;18.77;;;2.15;;
73100;SDS011;61288;53.446;-2.266;2023-12-22T06:24:28;14.52;;;2.00;;
73100;SDS011;61288;53.446;-2.266;2023-12-22T06:26:54;9.25;;;1.40;;
73100;SDS011;61288;53.446;-2.266;2023-12-22T06:29:19;10.52;;;1.83;;
73100;SDS011;61288;53.446;-2.266;2023-12-22T06:31:45;13.00;;;1.90;;
73100;SDS011;61288;53.446;-2.266;2023-12-22T06:34:15;13.63;;;1.52;;
73100;SDS011;61288;53.446;-2.266;2023-12-22T06:36:41;11.30;;;1.83;;
73100;SDS011;61288;53.446;-2.266;2023-12-22T06:39:07;14.52;;;1.80;;
73100;SDS011;61288;53.446;-2.266;2023-12-22T06:41:33;11.05;;;1.80;;
73100;SDS011;61288;53.446;-2.266;2023-12-22T06:43:58;15.23;;;2.65;;
73100;SDS011;61288;53.446;-2.266;2023-12-22T06:46:27;12.77;;;1.80;;
73100;SDS011;61288;53.446;-2.266;2023-12-22T06:48:54;16.30;;;2.33;;
73100;SDS011;61288;53.446;-2.266;2023-12-22T06:51:24;24.25;;;2.95;;
73100;SDS011;61288;53.446;-2.266;2023-12-22T06:53:56;22.17;;;2.63;;
73100;SDS011;61288;53.446;-2.266;2023-12-22T06:56:25;18.42;;;2.88;;
73100;SDS011;61288;53.446;-2.266;2023-12-22T06:58:53;21.80;;;2.40;;
73100;SDS011;61288;53.446;-2.266;2023-12-22T07:01:23;18.83;;;2.63;;
73100;SDS011;61288;53.446;-2.266;2023-12-22T07:03:56;15.15;;;2.65;;
73100;SDS011;61288;53.446;-2.266;2023-12-22T07:06:22;19.17;;;2.58;;
73100;SDS011;61288;53.446;-2.266;2023-12-22T07:11:41;15.68;;;2.55;;
73100;SDS011;61288;53.446;-2.266;2023-12-22T07:14:07;14.13;;;2.10;;
73100;SDS011;61288;53.446;-2.266;2023-12-22T07:16:33;12.23;;;1.83;;
73100;SDS011;61288;53.446;-2.266;2023-12-22T07:19:00;9.57;;;1.65;;
73100;SDS011;61288;53.446;-2.266;2023-12-22T07:21:25;11.38;;;1.67;;
73100;SDS011;61288;53.446;-2.266;2023-12-22T07:23:51;14.75;;;2.10;;
73100;SDS011;61288;53.446;-2.266;2023-12-22T07:26:17;16.30;;;2.03;;
73100;SDS011;61288;53.446;-2.266;2023-12-22T07:28:42;12.48;;;1.70;;
73100;SDS011;61288;53.446;-2.266;2023-12-22T07:31:07;11.70;;;1.98;;
73100;SDS011;61288;53.446;-2.266;2023-12-22T07:33:33;14.95;;;1.85;;
73100;SDS011;61288;53.446;-2.266;2023-12-22T07:35:58;19.17;;;2.47;;
73100;SDS011;61288;53.446;-2.266;2023-12-22T07:38:24;16.30;;;2.53;;
73100;SDS011;61288;53.446;-2.266;2023-12-22T07:40:49;20.38;;;2.78;;
73100;SDS011;61288;53.446;-2.266;2023-12-22T07:43:15;22.02;;;3.05;;
73100;SDS011;61288;53.446;-2.266;2023-12-22T07:45:41;20.55;;;3.30;;
73100;SDS011;61288;53.446;-2.266;2023-12-22T07:48:07;22.90;;;3.17;;
73100;SDS011;61288;53.446;-2.266;2023-12-22T07:50:33;22.73;;;3.15;;
73100;SDS011;61288;53.446;-2.266;2023-12-22T07:52:58;15.95;;;3.10;;
73100;SDS011;61288;53.446;-2.266;2023-12-22T07:55:24;16.50;;;2.28;;
73100;SDS011;61288;53.446;-2.266;2023-12-22T07:57:50;20.98;;;2.53;;
73100;SDS011;61288;53.446;-2.266;2023-12-22T08:00:17;19.92;;;2.63;;
73100;SDS011;61288;53.446;-2.266;2023-12-22T08:02:43;21.00;;;3.13;;
73100;SDS011;61288;53.446;-2.266;2023-12-22T08:05:08;11.98;;;2.13;;
73100;SDS011;61288;53.446;-2.266;2023-12-22T08:07:35;18.92;;;2.15;;
73100;SDS011;61288;53.446;-2.266;2023-12-22T08:10:01;17.60;;;2.85;;
73100;SDS011;61288;53.446;-2.266;2023-12-22T08:12:27;12.60;;;1.73;;
73100;SDS011;61288;53.446;-2.266;2023-12-22T08:14:53;12.20;;;1.95;;
73100;SDS011;61288;53.446;-2.266;2023-12-22T08:17:19;10.95;;;1.95;;
73100;SDS011;61288;53.446;-2.266;2023-12-22T08:19:44;14.85;;;2.10;;
73100;SDS011;61288;53.446;-2.266;2023-12-22T08:22:10;17.83;;;2.33;;
73100;SDS011;61288;53.446;-2.266;2023-12-22T08:24:38;11.13;;;2.05;;
73100;SDS011;61288;53.446;-2.266;2023-12-22T08:27:07;20.25;;;2.75;;
73100;SDS011;61288;53.446;-2.266;2023-12-22T08:29:33;20.95;;;2.17;;
73100;SDS011;61288;53.446;-2.266;2023-12-22T08:31:59;17.63;;;3.13;;
73100;SDS011;61288;53.446;-2.266;2023-12-22T08:34:25;17.88;;;2.75;;
73100;SDS011;61288;53.446;-2.266;2023-12-22T08:36:52;18.40;;;2.83;;
73100;SDS011;61288;53.446;-2.266;2023-12-22T08:39:17;18.23;;;2.28;;
73100;SDS011;61288;53.446;-2.266;2023-12-22T08:41:43;20.02;;;2.33;;
73100;SDS011;61288;53.446;-2.266;2023-12-22T08:44:08;21.13;;;3.30;;
73100;SDS011;61288;53.446;-2.266;2023-12-22T08:46:35;21.75;;;1.95;;
73100;SDS011;61288;53.446;-2.266;2023-12-22T08:49:00;19.27;;;2.50;;
73100;SDS011;61288;53.446;-2.266;2023-12-22T08:51:26;17.67;;;2.35;;
73100;SDS011;61288;53.446;-2.266;2023-12-22T08:53:52;19.42;;;2.17;;
73100;SDS011;61288;53.446;-2.266;2023-12-22T08:56:19;18.92;;;2.30;;
73100;SDS011;61288;53.446;-2.266;2023-12-22T08:58:46;13.07;;;2.10;;
73100;SDS011;61288;53.446;-2.266;2023-12-22T09:01:15;12.30;;;2.15;;
73100;SDS011;61288;53.446;-2.266;2023-12-22T09:03:41;14.98;;;2.05;;
73100;SDS011;61288;53.446;-2.266;2023-12-22T09:06:11;13.90;;;1.85;;
73100;SDS011;61288;53.446;-2.266;2023-12-22T09:08:40;22.02;;;2.67;;
73100;SDS011;61288;53.446;-2.266;2023-12-22T09:11:06;20.17;;;2.80;;
73100;SDS011;61288;53.446;-2.266;2023-12-22T09:13:31;16.13;;;2.45;;
73100;SDS011;61288;53.446;-2.266;2023-12-22T09:15:59;22.30;;;2.88;;
73100;SDS011;61288;53.446;-2.266;2023-12-22T09:18:25;18.10;;;2.20;;
73100;SDS011;61288;53.446;-2.266;2023-12-22T09:20:51;14.65;;;2.15;;
73100;SDS011;61288;53.446;-2.266;2023-12-22T09:23:16;15.82;;;2.30;;
73100;SDS011;61288;53.446;-2.266;2023-12-22T09:25:42;18.50;;;3.10;;
73100;SDS011;61288;53.446;-2.266;2023-12-22T09:28:07;17.67;;;3.40;;
73100;SDS011;61288;53.446;-2.266;2023-12-22T09:30:33;10.52;;;1.90;;
73100;SDS011;61288;53.446;-2.266;2023-12-22T09:32:58;17.67;;;2.00;;
73100;SDS011;61288;53.446;-2.266;2023-12-22T09:35:23;14.30;;;1.90;;
73100;SDS011;61288;53.446;-2.266;2023-12-22T09:37:51;17.23;;;2.08;;
73100;SDS011;61288;53.446;-2.266;2023-12-22T09:40:19;14.10;;;2.22;;
73100;SDS011;61288;53.446;-2.266;2023-12-22T09:42:47;17.52;;;2.50;;
73100;SDS011;61288;53.446;-2.266;2023-12-22T09:45:16;19.77;;;2.10;;
73100;SDS011;61288;53.446;-2.266;2023-12-22T09:47:45;18.73;;;2.45;;
73100;SDS011;61288;53.446;-2.266;2023-12-22T09:50:11;17.45;;;1.98;;
73100;SDS011;61288;53.446;-2.266;2023-12-22T09:52:38;17.55;;;1.95;;
73100;SDS011;61288;53.446;-2.266;2023-12-22T09:55:07;10.23;;;1.70;;
73100;SDS011;61288;53.446;-2.266;2023-12-22T09:57:33;18.63;;;3.78;;
73100;SDS011;61288;53.446;-2.266;2023-12-22T10:00:00;18.63;;;2.40;;
73100;SDS011;61288;53.446;-2.266;2023-12-22T10:02:31;11.20;;;1.85;;
73100;SDS011;61288;53.446;-2.266;2023-12-22T10:05:00;18.42;;;2.20;;
73100;SDS011;61288;53.446;-2.266;2023-12-22T10:07:26;13.32;;;2.47;;
73100;SDS011;61288;53.446;-2.266;2023-12-22T10:09:52;12.45;;;2.15;;
73100;SDS011;61288;53.446;-2.266;2023-12-22T10:12:19;16.80;;;2.17;;
73100;SDS011;61288;53.446;-2.266;2023-12-22T10:14:45;17.63;;;2.47;;
73100;SDS011;61288;53.446;-2.266;2023-12-22T10:17:12;13.65;;;2.30;;
73100;SDS011;61288;53.446;-2.266;2023-12-22T10:19:39;19.38;;;2.40;;
73100;SDS011;61288;53.446;-2.266;2023-12-22T10:22:04;17.42;;;2.20;;
73100;SDS011;61288;53.446;-2.266;2023-12-22T10:24:42;15.00;;;2.10;;
73100;SDS011;61288;53.446;-2.266;2023-12-22T10:27:10;17.42;;;2.15;;
73100;SDS011;61288;53.446;-2.266;2023-12-22T10:29:36;17.45;;;2.22;;
73100;SDS011;61288;53.446;-2.266;2023-12-22T10:32:02;14.27;;;2.45;;
73100;SDS011;61288;53.446;-2.266;2023-12-22T10:34:29;13.93;;;2.17;;
73100;SDS011;61288;53.446;-2.266;2023-12-22T10:36:55;13.85;;;2.30;;
73100;SDS011;61288;53.446;-2.266;2023-12-22T10:39:21;15.80;;;2.00;;
73100;SDS011;61288;53.446;-2.266;2023-12-22T10:41:47;15.88;;;2.20;;
73100;SDS011;61288;53.446;-2.266;2023-12-22T10:44:14;18.05;;;2.58;;
73100;SDS011;61288;53.446;-2.266;2023-12-22T10:46:42;14.25;;;2.03;;
73100;SDS011;61288;53.446;-2.266;2023-12-22T10:49:08;12.73;;;1.70;;
73100;SDS011;61288;53.446;-2.266;2023-12-22T10:51:33;15.10;;;2.38;;
73100;SDS011;61288;53.446;-2.266;2023-12-22T10:53:58;14.02;;;1.88;;
73100;SDS011;61288;53.446;-2.266;2023-12-22T10:56:24;15.68;;;2.60;;
73100;SDS011;61288;53.446;-2.266;2023-12-22T10:58:52;15.43;;;2.30;;
73100;SDS011;61288;53.446;-2.266;2023-12-22T11:01:18;18.45;;;2.17;;
73100;SDS011;61288;53.446;-2.266;2023-12-22T11:03:48;17.27;;;2.30;;
73100;SDS011;61288;53.446;-2.266;2023-12-22T11:06:16;26.15;;;2.60;;
73100;SDS011;61288;53.446;-2.266;2023-12-22T11:08:43;13.80;;;2.42;;
73100;SDS011;61288;53.446;-2.266;2023-12-22T11:14:08;18.80;;;2.20;;
73100;SDS011;61288;53.446;-2.266;2023-12-22T11:16:35;11.52;;;1.98;;
73100;SDS011;61288;53.446;-2.266;2023-12-22T11:19:01;17.00;;;2.08;;
73100;SDS011;61288;53.446;-2.266;2023-12-22T11:21:28;14.35;;;2.40;;
73100;SDS011;61288;53.446;-2.266;2023-12-22T11:23:55;17.75;;;2.25;;
73100;SDS011;61288;53.446;-2.266;2023-12-22T11:26:23;17.13;;;2.58;;
73100;SDS011;61288;53.446;-2.266;2023-12-22T11:28:51;16.95;;;2.80;;
73100;SDS011;61288;53.446;-2.266;2023-12-22T11:31:18;16.13;;;2.20;;
73100;SDS011;61288;53.446;-2.266;2023-12-22T11:33:47;11.18;;;1.70;;
73100;SDS011;61288;53.446;-2.266;2023-12-22T11:36:14;10.68;;;2.30;;
73100;SDS011;61288;53.446;-2.266;2023-12-22T11:38:40;11.75;;;1.70;;
73100;SDS011;61288;53.446;-2.266;2023-12-22T11:41:11;19.63;;;2.47;;
73100;SDS011;61288;53.446;-2.266;2023-12-22T11:43:41;16.85;;;2.60;;
73100;SDS011;61288;53.446;-2.266;2023-12-22T11:46:08;13.63;;;2.28;;
73100;SDS011;61288;53.446;-2.266;2023-12-22T11:48:34;14.55;;;2.30;;
73100;SDS011;61288;53.446;-2.266;2023-12-22T11:51:00;23.77;;;3.13;;
73100;SDS011;61288;53.446;-2.266;2023-12-22T11:53:30;17.85;;;2.38;;
73100;SDS011;61288;53.446;-2.266;2023-12-22T11:56:02;16.88;;;2.58;;
73100;SDS011;61288;53.446;-2.266;2023-12-22T11:58:34;16.92;;;2.72;;
73100;SDS011;61288;53.446;-2.266;2023-12-22T12:01:07;17.88;;;2.70;;
73100;SDS011;61288;53.446;-2.266;2023-12-22T12:03:35;16.05;;;2.10;;
73100;SDS011;61288;53.446;-2.266;2023-12-22T12:06:45;13.90;;;2.40;;
73100;SDS011;61288;53.446;-2.266;2023-12-22T12:08:54;16.20;;;2.33;;
73100;SDS011;61288;53.446;-2.266;2023-12-22T12:11:21;12.75;;;1.95;;
73100;SDS011;61288;53.446;-2.266;2023-12-22T12:13:47;17.83;;;2.65;;
73100;SDS011;61288;53.446;-2.266;2023-12-22T12:16:15;13.95;;;2.40;;
73100;SDS011;61288;53.446;-2.266;2023-12-22T12:18:44;15.75;;;1.80;;
73100;SDS011;61288;53.446;-2.266;2023-12-22T12:21:10;15.00;;;2.00;;
73100;SDS011;61288;53.446;-2.266;2023-12-22T12:23:36;15.40;;;2.03;;
73100;SDS011;61288;53.446;-2.266;2023-12-22T12:26:05;12.63;;;2.42;;
73100;SDS011;61288;53.446;-2.266;2023-12-22T12:28:32;17.50;;;2.45;;
73100;SDS011;61288;53.446;-2.266;2023-12-22T12:30:59;14.50;;;2.03;;
73100;SDS011;61288;53.446;-2.266;2023-12-22T12:33:26;17.38;;;2.22;;
73100;SDS011;61288;53.446;-2.266;2023-12-22T12:35:53;19.48;;;2.10;;
73100;SDS011;61288;53.446;-2.266;2023-12-22T12:38:21;13.55;;;2.30;;
73100;SDS011;61288;53.446;-2.266;2023-12-22T12:40:50;12.70;;;1.90;;
73100;SDS011;61288;53.446;-2.266;2023-12-22T12:43:16;13.77;;;1.95;;
73100;SDS011;61288;53.446;-2.266;2023-12-22T12:45:43;14.80;;;1.80;;
73100;SDS011;61288;53.446;-2.266;2023-12-22T12:48:09;12.40;;;1.85;;
73100;SDS011;61288;53.446;-2.266;2023-12-22T12:50:35;14.18;;;1.92;;
73100;SDS011;61288;53.446;-2.266;2023-12-22T12:53:01;18.75;;;2.60;;
73100;SDS011;61288;53.446;-2.266;2023-12-22T12:55:27;15.65;;;2.53;;
73100;SDS011;61288;53.446;-2.266;2023-12-22T12:57:53;16.83;;;2.22;;
73100;SDS011;61288;53.446;-2.266;2023-12-22T13:02:56;17.45;;;2.72;;
73100;SDS011;61288;53.446;-2.266;2023-12-22T13:05:25;11.57;;;1.90;;
73100;SDS011;61288;53.446;-2.266;2023-12-22T13:07:51;14.63;;;2.20;;
73100;SDS011;61288;53.446;-2.266;2023-12-22T13:10:20;19.17;;;2.28;;
73100;SDS011;61288;53.446;-2.266;2023-12-22T13:12:45;8.00;;;1.65;;
73100;SDS011;61288;53.446;-2.266;2023-12-22T13:15:11;11.95;;;2.10;;
73100;SDS011;61288;53.446;-2.266;2023-12-22T13:17:36;18.85;;;2.03;;
73100;SDS011;61288;53.446;-2.266;2023-12-22T13:20:02;15.18;;;1.85;;
73100;SDS011;61288;53.446;-2.266;2023-12-22T13:22:28;16.75;;;2.13;;
73100;SDS011;61288;53.446;-2.266;2023-12-22T13:24:54;18.05;;;2.72;;
73100;SDS011;61288;53.446;-2.266;2023-12-22T13:27:21;17.27;;;2.22;;
73100;SDS011;61288;53.446;-2.266;2023-12-22T13:29:47;13.52;;;2.20;;
73100;SDS011;61288;53.446;-2.266;2023-12-22T13:32:14;10.70;;;2.25;;
73100;SDS011;61288;53.446;-2.266;2023-12-22T13:34:46;17.10;;;2.00;;
73100;SDS011;61288;53.446;-2.266;2023-12-22T13:37:19;12.77;;;1.98;;
73100;SDS011;61288;53.446;-2.266;2023-12-22T13:39:45;12.30;;;1.95;;
73100;SDS011;61288;53.446;-2.266;2023-12-22T13:42:18;17.75;;;2.67;;
73100;SDS011;61288;53.446;-2.266;2023-12-22T13:44:46;21.83;;;2.63;;
73100;SDS011;61288;53.446;-2.266;2023-12-22T13:47:17;15.70;;;2.00;;
73100;SDS011;61288;53.446;-2.266;2023-12-22T13:49:43;18.33;;;2.28;;
73100;SDS011;61288;53.446;-2.266;2023-12-22T13:54:55;15.20;;;2.10;;
73100;SDS011;61288;53.446;-2.266;2023-12-22T13:57:22;11.45;;;1.45;;
73100;SDS011;61288;53.446;-2.266;2023-12-22T13:59:48;20.45;;;2.58;;
73100;SDS011;61288;53.446;-2.266;2023-12-22T14:02:13;14.90;;;2.33;;
73100;SDS011;61288;53.446;-2.266;2023-12-22T14:04:39;15.52;;;2.40;;
73100;SDS011;61288;53.446;-2.266;2023-12-22T14:07:04;20.15;;;2.22;;
73100;SDS011;61288;53.446;-2.266;2023-12-22T14:09:30;14.38;;;1.88;;
73100;SDS011;61288;53.446;-2.266;2023-12-22T14:11:58;12.38;;;1.80;;
73100;SDS011;61288;53.446;-2.266;2023-12-22T14:14:24;13.07;;;2.22;;
73100;SDS011;61288;53.446;-2.266;2023-12-22T14:16:49;11.85;;;2.50;;
73100;SDS011;61288;53.446;-2.266;2023-12-22T14:19:14;17.45;;;1.88;;
73100;SDS011;61288;53.446;-2.266;2023-12-22T14:21:40;11.60;;;2.05;;
73100;SDS011;61288;53.446;-2.266;2023-12-22T14:24:06;13.85;;;2.78;;
73100;SDS011;61288;53.446;-2.266;2023-12-22T14:26:31;21.05;;;2.17;;
73100;SDS011;61288;53.446;-2.266;2023-12-22T14:28:57;17.98;;;2.45;;
73100;SDS011;61288;53.446;-2.266;2023-12-22T14:31:22;20.08;;;2.70;;
73100;SDS011;61288;53.446;-2.266;2023-12-22T14:33:48;16.27;;;2.33;;